Time;durP1;ratioP1;P1;durP2;ratioP2;P2;SDS_P1;SDS_P2;PMS_P1;PMS_P2;Temp;Humidity;BMP_temperature;BMP_pressure;BME280_temperature;BME280_humidity;BME280_pressure;Samples;Min_cycle;Max_cycle;Signal;HPM_P1;HPM_P2
2022/09/11 00:01:00;;;;;;;0.10;0.10;;;15.50;99.90;;;;;;5032724;28;20206;-74
2022/09/11 00:03:30;;;;;;;0.00;0.00;;;15.50;99.90;;;;;;5056723;22;20262;-74
2022/09/11 00:06:02;;;;;;;0.00;0.00;;;15.40;99.90;;;;;;5024138;28;20625;-75
2022/09/11 00:08:30;;;;;;;0.00;0.00;;;15.40;99.90;;;;;;5025527;28;20250;-73
2022/09/11 00:11:04;;;;;;;0.00;0.00;;;15.30;99.90;;;;;;5024862;28;20203;-74
2022/09/11 00:13:32;;;;;;;0.10;0.10;;;15.30;99.90;;;;;;5025250;28;20207;-74
2022/09/11 00:16:04;;;;;;;0.00;0.00;;;15.30;99.90;;;;;;5025020;28;20202;-75
2022/09/11 00:18:34;;;;;;;0.00;0.00;;;15.30;99.90;;;;;;5023636;28;20245;-75
2022/09/11 00:21:04;;;;;;;0.00;0.00;;;15.30;99.90;;;;;;5024323;28;20207;-75
2022/09/11 00:23:32;;;;;;;0.00;0.00;;;15.40;99.90;;;;;;5023323;28;20194;-75
2022/09/11 00:26:02;;;;;;;0.00;0.00;;;15.40;99.90;;;;;;5024681;28;20287;-75
2022/09/11 00:28:30;;;;;;;0.00;0.00;;;15.30;99.90;;;;;;5024512;28;20266;-76
2022/09/11 00:30:59;;;;;;;0.00;0.00;;;15.30;99.90;;;;;;5029698;28;20238;-76
2022/09/11 00:33:29;;;;;;;0.00;0.00;;;15.40;99.90;;;;;;5024806;28;20701;-75
2022/09/11 00:35:59;;;;;;;0.00;0.00;;;15.30;99.90;;;;;;5024216;28;20211;-75
2022/09/11 00:38:28;;;;;;;0.00;0.00;;;15.30;99.90;;;;;;5024971;28;20196;-75
2022/09/11 00:40:57;;;;;;;0.00;0.00;;;15.40;99.90;;;;;;5025394;28;20211;-73
2022/09/11 00:43:27;;;;;;;0.00;0.00;;;15.30;99.90;;;;;;5006636;28;20233;-73
2022/09/11 00:45:58;;;;;;;0.00;0.00;;;15.20;99.90;;;;;;5006909;28;20747;-73
2022/09/11 00:48:34;;;;;;;0.00;0.00;;;15.20;99.90;;;;;;5006371;28;20257;-73
2022/09/11 00:51:04;;;;;;;0.00;0.00;;;15.20;99.90;;;;;;5022745;28;20610;-74
2022/09/11 00:53:35;;;;;;;0.00;0.00;;;15.20;99.90;;;;;;5006445;28;20249;-74
2022/09/11 00:56:06;;;;;;;0.10;0.10;;;15.30;99.90;;;;;;5023482;28;20251;-74
2022/09/11 00:58:39;;;;;;;0.00;0.00;;;15.30;99.90;;;;;;5027501;28;20198;-74
2022/09/11 01:01:07;;;;;;;0.00;0.00;;;15.40;99.90;;;;;;5023296;28;20253;-75
2022/09/11 01:03:37;;;;;;;0.00;0.00;;;15.40;99.90;;;;;;5022278;28;20266;-74
2022/09/11 01:06:05;;;;;;;0.00;0.00;;;15.50;99.90;;;;;;5014056;28;20273;-75
2022/09/11 01:08:33;;;;;;;0.00;0.00;;;15.50;99.90;;;;;;5024418;28;20214;-75
2022/09/11 01:11:30;;;;;;;0.00;0.00;;;15.50;99.90;;;;;;5007096;28;20207;-75
2022/09/11 01:14:06;;;;;;;0.03;0.03;;;15.50;99.90;;;;;;5023677;28;20223;-75
2022/09/11 01:16:39;;;;;;;0.00;0.00;;;15.50;99.90;;;;;;5006604;28;20230;-74
2022/09/11 01:19:24;;;;;;;0.00;0.00;;;15.50;99.90;;;;;;5025047;28;20207;-75
2022/09/11 01:22:07;;;;;;;0.00;0.00;;;15.50;99.90;;;;;;5008232;28;20200;-75
2022/09/11 01:24:53;;;;;;;0.00;0.00;;;15.40;99.90;;;;;;5006666;28;20270;-75
2022/09/11 01:27:38;;;;;;;0.00;0.00;;;15.40;99.90;;;;;;5023052;28;20196;-75
2022/09/11 01:30:08;;;;;;;0.03;0.03;;;15.50;99.90;;;;;;5001313;28;20686;-75
2022/09/11 01:33:01;;;;;;;0.00;0.00;;;15.40;99.90;;;;;;5021309;28;20422;-74
2022/09/11 01:35:39;;;;;;;0.10;0.10;;;15.40;99.90;;;;;;5005760;28;20235;-75
2022/09/11 01:38:14;;;;;;;0.00;0.00;;;15.40;99.90;;;;;;5005793;28;20204;-74
2022/09/11 01:40:48;;;;;;;0.00;0.00;;;15.40;99.90;;;;;;5005647;28;20239;-75
2022/09/11 01:43:21;;;;;;;0.00;0.00;;;15.30;99.90;;;;;;5030827;28;20221;-74
2022/09/11 01:45:52;;;;;;;0.00;0.00;;;15.30;99.90;;;;;;5024329;28;20208;-73
2022/09/11 01:48:25;;;;;;;0.00;0.00;;;15.30;99.90;;;;;;5024380;28;20219;-73
2022/09/11 01:50:55;;;;;;;0.00;0.00;;;15.30;99.90;;;;;;5009016;28;20206;-74
2022/09/11 01:53:27;;;;;;;0.00;0.00;;;15.30;99.90;;;;;;5015114;28;20234;-75
2022/09/11 01:56:01;;;;;;;0.00;0.00;;;15.30;99.90;;;;;;5019111;28;20287;-75
2022/09/11 01:58:35;;;;;;;0.00;0.00;;;15.30;99.90;;;;;;5021046;28;20194;-75
2022/09/11 02:01:07;;;;;;;0.00;0.00;;;15.30;99.90;;;;;;5038924;28;20223;-75
2022/09/11 02:03:38;;;;;;;0.00;0.00;;;15.20;99.90;;;;;;5013979;28;20249;-76
2022/09/11 02:06:11;;;;;;;0.00;0.00;;;15.20;99.90;;;;;;5040099;28;20278;-76
2022/09/11 02:08:44;;;;;;;0.00;0.00;;;15.20;99.90;;;;;;5033079;28;20219;-75
2022/09/11 02:11:14;;;;;;;0.00;0.00;;;15.20;99.90;;;;;;5030691;28;20207;-74
2022/09/11 02:13:53;;;;;;;0.00;0.00;;;15.20;99.90;;;;;;5028566;28;20222;-73
2022/09/11 02:16:28;;;;;;;0.08;0.08;;;15.20;99.90;;;;;;5005615;28;20548;-73
2022/09/11 02:19:01;;;;;;;0.00;0.00;;;15.10;99.90;;;;;;5008492;28;20230;-74
2022/09/11 02:21:29;;;;;;;0.00;0.00;;;15.10;99.90;;;;;;5022772;28;20203;-74
2022/09/11 02:23:57;;;;;;;0.00;0.00;;;15.10;99.90;;;;;;5006170;28;20263;-73
2022/09/11 02:26:29;;;;;;;0.00;0.00;;;15.20;99.90;;;;;;5004331;28;20211;-74
2022/09/11 02:28:59;;;;;;;0.00;0.00;;;15.20;99.90;;;;;;5028685;28;20357;-74
2022/09/11 02:31:27;;;;;;;0.00;0.00;;;15.20;99.90;;;;;;5022717;28;20218;-73
2022/09/11 02:33:56;;;;;;;0.00;0.00;;;15.20;99.90;;;;;;5028121;28;20222;-73
2022/09/11 02:36:43;;;;;;;0.00;0.00;;;15.20;99.90;;;;;;5020972;28;20576;-73
2022/09/11 02:39:23;;;;;;;0.00;0.00;;;15.30;99.90;;;;;;5023862;28;20195;-74
2022/09/11 02:42:09;;;;;;;0.00;0.00;;;15.30;99.90;;;;;;5028479;28;20203;-74
2022/09/11 02:44:47;;;;;;;0.00;0.00;;;15.30;99.90;;;;;;5027873;28;20219;-74
2022/09/11 02:47:25;;;;;;;0.00;0.00;;;15.40;99.90;;;;;;5002635;28;20280;-74
2022/09/11 02:50:04;;;;;;;0.00;0.00;;;15.30;99.90;;;;;;5005096;28;20250;-74
2022/09/11 02:52:50;;;;;;;0.00;0.00;;;15.30;99.90;;;;;;5004150;28;20200;-75
2022/09/11 02:55:24;;;;;;;0.00;0.00;;;15.30;99.90;;;;;;5020564;28;20229;-74
2022/09/11 02:57:58;;;;;;;0.00;0.00;;;15.30;99.90;;;;;;5019470;28;20563;-74
2022/09/11 03:00:28;;;;;;;0.00;0.00;;;15.20;99.90;;;;;;5005969;28;20669;-75
2022/09/11 03:02:57;;;;;;;0.00;0.00;;;15.10;99.90;;;;;;5004884;28;20214;-74
2022/09/11 03:05:27;;;;;;;0.00;0.00;;;15.10;99.90;;;;;;5003548;28;20231;-75
2022/09/11 03:07:56;;;;;;;0.00;0.00;;;15.10;99.90;;;;;;5021888;28;20199;-74
2022/09/11 03:10:24;;;;;;;0.00;0.00;;;15.00;99.90;;;;;;5022849;28;20702;-74
2022/09/11 03:12:53;;;;;;;0.00;0.00;;;15.00;99.90;;;;;;5022257;28;20264;-73
2022/09/11 03:15:22;;;;;;;0.10;0.10;;;15.00;99.90;;;;;;5021534;28;20268;-73
2022/09/11 03:17:52;;;;;;;0.00;0.00;;;15.00;99.90;;;;;;5019323;28;20572;-73
2022/09/11 03:20:20;;;;;;;0.00;0.00;;;15.00;99.90;;;;;;5004610;28;20249;-73
2022/09/11 03:22:48;;;;;;;0.00;0.00;;;15.10;99.90;;;;;;5004407;28;20694;-73
2022/09/11 03:25:16;;;;;;;0.00;0.00;;;15.10;99.90;;;;;;5023237;28;20222;-73
2022/09/11 03:27:44;;;;;;;0.00;0.00;;;15.10;99.90;;;;;;5004884;28;20203;-75
2022/09/11 03:30:13;;;;;;;0.00;0.00;;;15.10;99.90;;;;;;5009242;28;20227;-74
2022/09/11 03:32:41;;;;;;;0.00;0.00;;;15.10;99.90;;;;;;5030453;28;20689;-76
2022/09/11 03:35:13;;;;;;;0.00;0.00;;;15.30;99.90;;;;;;5008555;28;20255;-75
2022/09/11 03:37:41;;;;;;;0.00;0.00;;;15.20;99.90;;;;;;5008266;28;20203;-75
2022/09/11 03:40:10;;;;;;;0.00;0.00;;;15.10;99.90;;;;;;5008674;28;20213;-75
2022/09/11 03:42:38;;;;;;;0.00;0.00;;;15.20;99.90;;;;;;5025532;28;20195;-75
2022/09/11 03:45:06;;;;;;;0.00;0.00;;;15.20;99.90;;;;;;5008846;28;20241;-76
2022/09/11 03:47:36;;;;;;;0.00;0.00;;;15.20;99.90;;;;;;5007612;28;20207;-76
2022/09/11 03:50:05;;;;;;;0.00;0.00;;;15.20;99.90;;;;;;5008667;28;20231;-74
2022/09/11 03:52:34;;;;;;;0.00;0.00;;;15.20;99.90;;;;;;5007639;28;20272;-75
2022/09/11 03:55:03;;;;;;;0.00;0.00;;;15.10;99.90;;;;;;5009278;28;20693;-75
2022/09/11 03:57:33;;;;;;;0.00;0.00;;;15.10;99.90;;;;;;5008180;28;20211;-74
2022/09/11 04:00:01;;;;;;;0.00;0.00;;;15.10;99.90;;;;;;5030479;28;20204;-73
2022/09/11 04:02:46;;;;;;;0.00;0.00;;;15.10;99.90;;;;;;5025020;28;20248;-73
2022/09/11 04:05:24;;;;;;;0.00;0.00;;;15.10;99.90;;;;;;5025272;28;20231;-74
2022/09/11 04:07:55;;;;;;;0.00;0.00;;;15.20;99.90;;;;;;5030137;28;20204;-75
2022/09/11 04:10:24;;;;;;;0.00;0.00;;;15.20;99.90;;;;;;5025886;28;20365;-74
2022/09/11 04:12:52;;;;;;;0.00;0.00;;;15.20;99.90;;;;;;5022821;28;20288;-74
2022/09/11 04:15:22;;;;;;;0.00;0.00;;;15.30;99.90;;;;;;5007284;28;20247;-75
2022/09/11 04:17:49;;;;;;;0.00;0.00;;;15.40;99.90;;;;;;5024226;28;21010;-74
2022/09/11 04:20:18;;;;;;;0.08;0.08;;;15.40;99.90;;;;;;5007243;28;20202;-75
2022/09/11 04:22:46;;;;;;;0.00;0.00;;;15.40;99.90;;;;;;5006906;28;20195;-75
2022/09/11 04:25:15;;;;;;;0.03;0.03;;;15.40;99.90;;;;;;5023780;28;20230;-76
2022/09/11 04:27:43;;;;;;;0.00;0.00;;;15.30;99.90;;;;;;5023961;28;20203;-75
2022/09/11 04:30:15;;;;;;;0.00;0.00;;;15.40;99.90;;;;;;5007271;28;20969;-75
2022/09/11 04:32:45;;;;;;;0.00;0.00;;;15.40;99.90;;;;;;5006215;28;20207;-74
2022/09/11 04:35:13;;;;;;;0.10;0.10;;;15.30;99.90;;;;;;5005968;28;20658;-74
2022/09/11 04:37:49;;;;;;;0.00;0.00;;;15.40;99.90;;;;;;5006407;28;20213;-74
2022/09/11 04:40:18;;;;;;;0.00;0.00;;;15.30;99.90;;;;;;5006819;28;20203;-75
2022/09/11 04:42:47;;;;;;;0.10;0.10;;;15.30;99.90;;;;;;5030156;28;20238;-74
2022/09/11 04:45:15;;;;;;;0.00;0.00;;;15.20;99.90;;;;;;5013496;28;20242;-74
2022/09/11 04:47:43;;;;;;;0.10;0.10;;;15.20;99.90;;;;;;5023490;28;20204;-73
2022/09/11 04:50:12;;;;;;;0.00;0.00;;;15.30;99.90;;;;;;5006709;28;20222;-73
2022/09/11 04:52:44;;;;;;;0.00;0.00;;;15.10;99.90;;;;;;5023136;28;20198;-74
2022/09/11 04:55:12;;;;;;;0.00;0.00;;;15.00;99.90;;;;;;5029182;28;20301;-74
2022/09/11 04:57:42;;;;;;;0.00;0.00;;;15.00;99.90;;;;;;5005919;28;20242;-74
2022/09/11 05:00:11;;;;;;;0.00;0.00;;;14.90;99.90;;;;;;5024569;28;20230;-73
2022/09/11 05:02:39;;;;;;;0.00;0.00;;;14.90;99.90;;;;;;5006595;28;20206;-74
2022/09/11 05:05:08;;;;;;;0.00;0.00;;;14.90;99.90;;;;;;5006229;28;20266;-74
2022/09/11 05:07:37;;;;;;;0.00;0.00;;;14.90;99.90;;;;;;5023407;28;20682;-74
2022/09/11 05:10:07;;;;;;;0.00;0.00;;;14.90;99.90;;;;;;5029249;28;20266;-74
2022/09/11 05:12:35;;;;;;;0.00;0.00;;;14.90;99.90;;;;;;5028767;28;20614;-74
2022/09/11 05:15:04;;;;;;;0.00;0.00;;;14.90;99.90;;;;;;5005695;28;20735;-74
2022/09/11 05:17:33;;;;;;;0.00;0.00;;;14.90;99.90;;;;;;5023153;28;20203;-73
2022/09/11 05:20:01;;;;;;;0.00;0.00;;;14.90;99.90;;;;;;5006869;28;20207;-74
2022/09/11 05:22:30;;;;;;;0.00;0.00;;;15.00;99.90;;;;;;5005936;28;20290;-74
2022/09/11 05:25:00;;;;;;;0.00;0.00;;;15.00;99.90;;;;;;5007000;28;20235;-74
2022/09/11 05:27:28;;;;;;;0.00;0.00;;;15.00;99.90;;;;;;5004842;28;20282;-74
2022/09/11 05:29:56;;;;;;;0.00;0.00;;;15.00;99.90;;;;;;5004237;28;20659;-73
2022/09/11 05:32:25;;;;;;;0.00;0.00;;;15.00;99.90;;;;;;5021813;28;20253;-73
2022/09/11 05:34:54;;;;;;;0.00;0.00;;;15.00;99.90;;;;;;5006350;28;20274;-73
2022/09/11 05:37:24;;;;;;;0.00;0.00;;;15.00;99.90;;;;;;5028395;28;20199;-73
2022/09/11 05:39:53;;;;;;;0.00;0.00;;;15.10;99.90;;;;;;5004697;28;20237;-74
2022/09/11 05:42:20;;;;;;;0.00;0.00;;;15.10;99.90;;;;;;5028684;28;20298;-74
2022/09/11 05:44:52;;;;;;;0.00;0.00;;;15.20;99.90;;;;;;5006363;28;20309;-73
2022/09/11 05:47:21;;;;;;;0.00;0.00;;;15.10;99.90;;;;;;5004864;28;20200;-74
2022/09/11 05:49:53;;;;;;;0.00;0.00;;;15.20;99.90;;;;;;5004108;28;20548;-73
2022/09/11 05:52:21;;;;;;;0.00;0.00;;;15.30;99.90;;;;;;5022087;28;20219;-74
2022/09/11 05:54:52;;;;;;;0.00;0.00;;;15.30;99.90;;;;;;5004901;28;20730;-74
2022/09/11 05:57:20;;;;;;;0.00;0.00;;;15.30;99.90;;;;;;5026049;28;20207;-74
2022/09/11 05:59:48;;;;;;;0.00;0.00;;;15.40;99.90;;;;;;5004318;28;20203;-74
2022/09/11 06:02:18;;;;;;;0.00;0.00;;;15.50;99.90;;;;;;5005791;28;20686;-74
2022/09/11 06:04:52;;;;;;;0.00;0.00;;;15.40;99.90;;;;;;5047582;22;20236;-73
2022/09/11 06:07:23;;;;;;;0.00;0.00;;;15.50;99.90;;;;;;5032037;28;20208;-73
2022/09/11 06:09:52;;;;;;;0.00;0.00;;;15.50;99.90;;;;;;5026686;28;20198;-72
2022/09/11 06:12:20;;;;;;;0.00;0.00;;;15.50;99.90;;;;;;5049458;28;20219;-75
2022/09/11 06:14:49;;;;;;;0.00;0.00;;;15.50;99.90;;;;;;5036555;28;20227;-72
2022/09/11 06:17:17;;;;;;;0.00;0.00;;;15.50;99.90;;;;;;5027547;28;20226;-72
2022/09/11 06:19:46;;;;;;;0.08;0.08;;;15.50;99.90;;;;;;5025819;28;20678;-73
2022/09/11 06:22:16;;;;;;;0.00;0.00;;;15.50;99.90;;;;;;5028751;28;20299;-73
2022/09/11 06:24:45;;;;;;;0.00;0.00;;;15.60;99.90;;;;;;5028996;28;20247;-73
2022/09/11 06:27:15;;;;;;;0.00;0.00;;;15.70;99.90;;;;;;5011695;28;20203;-75
2022/09/11 06:29:45;;;;;;;0.00;0.00;;;15.80;99.90;;;;;;5027473;28;20226;-72
2022/09/11 06:32:13;;;;;;;0.00;0.00;;;15.90;99.90;;;;;;5025429;28;20223;-74
2022/09/11 06:34:41;;;;;;;0.00;0.00;;;15.90;99.90;;;;;;5005341;28;20266;-74
2022/09/11 06:37:12;;;;;;;0.00;0.00;;;16.00;99.90;;;;;;5024825;28;20238;-73
2022/09/11 06:39:42;;;;;;;0.00;0.00;;;16.00;99.90;;;;;;5025549;28;20209;-72
2022/09/11 06:42:18;;;;;;;0.00;0.00;;;16.00;99.90;;;;;;5027209;28;20286;-70
2022/09/11 06:44:46;;;;;;;0.00;0.00;;;16.10;99.90;;;;;;5025819;28;20702;-73
2022/09/11 06:47:17;;;;;;;0.00;0.00;;;16.20;99.90;;;;;;5027958;28;20208;-74
2022/09/11 06:49:46;;;;;;;0.00;0.00;;;16.30;99.90;;;;;;5026422;28;20293;-73
2022/09/11 06:52:34;;;;;;;0.00;0.00;;;16.30;99.90;;;;;;5030567;28;20233;-72
2022/09/11 06:55:12;;;;;;;0.00;0.00;;;16.40;99.90;;;;;;5027309;28;20615;-72
2022/09/11 06:57:43;;;;;;;0.00;0.00;;;16.30;99.90;;;;;;5026127;28;20569;-73
2022/09/11 07:00:15;;;;;;;0.00;0.00;;;16.40;99.90;;;;;;5027543;28;20299;-73
2022/09/11 07:02:45;;;;;;;0.00;0.00;;;16.40;99.90;;;;;;5027839;28;20209;-72
2022/09/11 07:05:14;;;;;;;0.00;0.00;;;16.40;99.90;;;;;;5027826;28;20227;-72
2022/09/11 07:07:47;;;;;;;0.00;0.00;;;16.50;99.90;;;;;;5027851;28;20634;-74
2022/09/11 07:10:19;;;;;;;0.00;0.00;;;16.50;99.90;;;;;;5027876;28;20216;-74
2022/09/11 07:12:53;;;;;;;0.00;0.00;;;16.60;99.90;;;;;;5028059;28;20218;-72
2022/09/11 07:15:21;;;;;;;0.00;0.00;;;16.50;99.90;;;;;;5028100;28;20282;-73
2022/09/11 07:17:49;;;;;;;0.00;0.00;;;16.50;99.90;;;;;;5010869;28;20203;-74
2022/09/11 07:20:17;;;;;;;0.00;0.00;;;16.50;99.90;;;;;;5026345;28;20253;-75
2022/09/11 07:22:45;;;;;;;0.00;0.00;;;16.60;99.90;;;;;;5028269;28;20242;-74
2022/09/11 07:25:16;;;;;;;0.10;0.10;;;16.60;99.90;;;;;;5023009;28;20286;-73
2022/09/11 07:27:44;;;;;;;0.00;0.00;;;16.60;99.90;;;;;;5026961;28;20206;-73
2022/09/11 07:30:14;;;;;;;0.00;0.00;;;16.60;99.90;;;;;;5025857;28;20674;-73
2022/09/11 07:32:44;;;;;;;0.00;0.00;;;16.50;99.90;;;;;;5025548;28;20229;-73
2022/09/11 07:35:20;;;;;;;0.00;0.00;;;16.50;99.90;;;;;;5026810;28;20230;-73
2022/09/11 07:37:50;;;;;;;0.00;0.00;;;16.50;99.90;;;;;;5026153;28;20213;-73
2022/09/11 07:40:23;;;;;;;0.00;0.00;;;16.50;99.90;;;;;;5021565;28;20203;-72
2022/09/11 07:42:51;;;;;;;0.00;0.00;;;16.50;99.90;;;;;;5026979;28;20202;-74
2022/09/11 07:45:20;;;;;;;0.00;0.00;;;16.50;99.90;;;;;;5025400;28;20794;-73
2022/09/11 07:47:50;;;;;;;0.00;0.00;;;16.50;99.90;;;;;;5009115;28;20230;-73
2022/09/11 07:50:18;;;;;;;0.00;0.00;;;16.50;99.90;;;;;;5024893;28;20311;-73
2022/09/11 07:52:46;;;;;;;0.00;0.00;;;16.50;99.90;;;;;;5021173;28;20219;-73
2022/09/11 07:55:15;;;;;;;0.00;0.00;;;16.50;99.90;;;;;;5024550;28;20230;-73
2022/09/11 07:57:45;;;;;;;0.00;0.00;;;16.50;99.90;;;;;;5025788;28;20206;-72
2022/09/11 08:00:15;;;;;;;0.00;0.00;;;16.50;99.90;;;;;;5025364;28;20203;-73
2022/09/11 08:02:48;;;;;;;0.00;0.00;;;16.50;99.90;;;;;;5027784;28;20281;-73
2022/09/11 08:05:25;;;;;;;0.00;0.00;;;16.50;99.90;;;;;;5030938;28;20242;-72
2022/09/11 08:07:53;;;;;;;0.00;0.00;;;16.50;99.90;;;;;;5031998;28;20214;-72
2022/09/11 08:10:21;;;;;;;0.00;0.00;;;16.50;99.90;;;;;;5011758;28;20196;-72
2022/09/11 08:12:56;;;;;;;0.00;0.00;;;16.50;99.90;;;;;;5027519;28;20233;-73
2022/09/11 08:15:30;;;;;;;0.00;0.00;;;16.50;99.90;;;;;;5030650;28;20246;-73
2022/09/11 08:18:00;;;;;;;0.00;0.00;;;16.40;99.90;;;;;;5025766;28;20206;-73
2022/09/11 08:20:29;;;;;;;0.00;0.00;;;16.40;99.90;;;;;;5022533;28;20209;-74
2022/09/11 08:22:57;;;;;;;0.00;0.00;;;16.40;99.90;;;;;;5031098;28;20213;-76
2022/09/11 08:25:27;;;;;;;0.00;0.00;;;16.50;99.90;;;;;;5030088;28;20301;-73
2022/09/11 08:27:58;;;;;;;0.00;0.00;;;16.50;99.90;;;;;;5030063;28;20298;-73
2022/09/11 08:30:26;;;;;;;0.00;0.00;;;16.50;99.90;;;;;;5028522;28;20199;-73
2022/09/11 08:32:54;;;;;;;0.00;0.00;;;16.50;99.90;;;;;;5012314;28;20593;-72
2022/09/11 08:35:22;;;;;;;0.00;0.00;;;16.50;99.90;;;;;;5026563;28;20230;-73
2022/09/11 08:37:51;;;;;;;0.00;0.00;;;16.50;99.90;;;;;;5031622;28;20218;-73
2022/09/11 08:40:22;;;;;;;0.00;0.00;;;16.50;99.90;;;;;;5029175;28;20214;-73
2022/09/11 08:42:51;;;;;;;0.00;0.00;;;16.50;99.90;;;;;;5013257;28;20199;-72
2022/09/11 08:45:25;;;;;;;0.00;0.00;;;16.50;99.90;;;;;;5029777;28;20321;-74
2022/09/11 08:47:56;;;;;;;0.00;0.00;;;16.50;99.90;;;;;;5030593;28;20199;-74
2022/09/11 08:50:27;;;;;;;0.00;0.00;;;16.50;99.90;;;;;;5029594;28;20223;-72
2022/09/11 08:52:57;;;;;;;0.00;0.00;;;16.50;99.90;;;;;;5013232;28;20269;-74
2022/09/11 08:55:35;;;;;;;0.00;0.00;;;16.50;99.90;;;;;;5026100;28;20566;-72
2022/09/11 08:58:13;;;;;;;0.00;0.00;;;16.50;99.90;;;;;;5022826;28;20266;-72
2022/09/11 09:00:47;;;;;;;0.00;0.00;;;16.60;99.90;;;;;;5041032;28;20206;-72
2022/09/11 09:03:52;;;;;;;0.00;0.00;;;16.70;99.90;;;;;;5042126;28;20203;-73
2022/09/11 09:06:44;;;;;;;0.00;0.00;;;16.70;99.90;;;;;;4984074;28;20206;-73
2022/09/11 09:09:19;;;;;;;0.05;0.05;;;16.80;99.90;;;;;;5027746;28;20290;-73
2022/09/11 09:11:51;;;;;;;0.00;0.00;;;16.80;99.90;;;;;;5025636;28;20209;-73
2022/09/11 09:14:37;;;;;;;0.00;0.00;;;16.90;99.90;;;;;;5011600;28;20229;-73
2022/09/11 09:17:11;;;;;;;0.00;0.00;;;16.90;99.90;;;;;;5031812;28;20202;-73
2022/09/11 09:19:46;;;;;;;0.00;0.00;;;16.90;99.90;;;;;;5032756;28;20612;-73
2022/09/11 09:22:19;;;;;;;0.00;0.00;;;17.00;99.90;;;;;;5029343;28;20222;-74
2022/09/11 09:24:49;;;;;;;0.00;0.00;;;17.00;99.90;;;;;;5026804;28;20249;-73
2022/09/11 09:27:21;;;;;;;0.00;0.00;;;17.00;99.90;;;;;;5027528;28;20211;-74
2022/09/11 09:29:54;;;;;;;0.00;0.00;;;17.00;99.90;;;;;;5026955;28;20685;-73
2022/09/11 09:32:31;;;;;;;0.00;0.00;;;17.00;99.90;;;;;;5013439;28;20680;-73
2022/09/11 09:35:07;;;;;;;0.00;0.00;;;17.00;99.90;;;;;;5027950;28;20234;-74
2022/09/11 09:37:36;;;;;;;0.00;0.00;;;17.00;99.90;;;;;;5027130;28;20617;-74
2022/09/11 09:40:08;;;;;;;0.00;0.00;;;16.80;99.90;;;;;;5025879;28;20211;-74
2022/09/11 09:42:57;;;;;;;0.00;0.00;;;16.90;99.90;;;;;;5025186;28;20287;-74
2022/09/11 09:45:40;;;;;;;0.00;0.00;;;16.90;99.90;;;;;;5029192;28;20214;-73
2022/09/11 09:48:11;;;;;;;0.00;0.00;;;17.00;99.90;;;;;;5029126;28;20207;-74
2022/09/11 09:50:42;;;;;;;0.00;0.00;;;17.00;99.90;;;;;;5029229;28;20234;-73
2022/09/11 09:53:16;;;;;;;0.00;0.00;;;17.00;99.90;;;;;;5031243;28;20268;-73
2022/09/11 09:55:46;;;;;;;0.00;0.00;;;16.90;99.90;;;;;;5030020;28;20222;-74
2022/09/11 09:58:14;;;;;;;0.00;0.00;;;17.00;99.90;;;;;;5023491;28;20211;-74
2022/09/11 10:00:42;;;;;;;0.00;0.00;;;17.20;99.90;;;;;;5029574;28;20207;-74
2022/09/11 10:03:20;;;;;;;0.00;0.00;;;17.40;99.90;;;;;;5029195;28;20203;-74
2022/09/11 10:05:49;;;;;;;0.00;0.00;;;17.50;99.90;;;;;;5028104;28;21061;-73
2022/09/11 10:08:32;;;;;;;0.00;0.00;;;17.60;99.90;;;;;;5025398;28;20204;-73
2022/09/11 10:11:02;;;;;;;0.00;0.00;;;17.60;99.90;;;;;;5029037;28;20249;-75
2022/09/11 10:13:33;;;;;;;0.00;0.00;;;17.70;99.90;;;;;;5029604;28;20231;-73
2022/09/11 10:16:03;;;;;;;0.00;0.00;;;17.70;99.90;;;;;;5028371;28;20223;-75
2022/09/11 10:18:36;;;;;;;0.00;0.00;;;17.60;99.90;;;;;;5028122;28;20207;-74
2022/09/11 10:21:32;;;;;;;0.00;0.00;;;17.60;99.90;;;;;;5022454;28;20207;-74
2022/09/11 10:24:03;;;;;;;0.00;0.00;;;17.60;99.90;;;;;;4994884;28;20292;-73
2022/09/11 10:26:34;;;;;;;0.00;0.00;;;17.60;99.90;;;;;;5025880;28;20290;-73
2022/09/11 10:29:15;;;;;;;0.00;0.00;;;17.60;99.90;;;;;;5028053;28;20234;-73
2022/09/11 10:31:49;;;;;;;0.00;0.00;;;17.60;99.90;;;;;;5023211;28;20202;-73
2022/09/11 10:34:21;;;;;;;0.00;0.00;;;17.60;99.90;;;;;;5030544;28;20227;-74
2022/09/11 10:36:54;;;;;;;0.00;0.00;;;17.60;99.90;;;;;;5026448;28;20262;-74
2022/09/11 10:39:24;;;;;;;0.00;0.00;;;17.60;99.90;;;;;;5027385;28;20293;-74
2022/09/11 10:41:58;;;;;;;0.00;0.00;;;17.60;99.90;;;;;;5032242;28;20195;-73
2022/09/11 10:44:27;;;;;;;0.00;0.00;;;17.60;99.90;;;;;;5036813;28;20214;-74
2022/09/11 10:47:05;;;;;;;0.00;0.00;;;17.60;99.90;;;;;;5032284;28;20210;-76
2022/09/11 10:49:34;;;;;;;0.00;0.00;;;17.70;99.90;;;;;;5031895;28;20210;-73
2022/09/11 10:52:17;;;;;;;0.00;0.00;;;17.80;99.90;;;;;;5023560;28;20548;-75
2022/09/11 10:54:57;;;;;;;0.00;0.00;;;18.00;99.90;;;;;;5028393;28;20222;-73
2022/09/11 10:57:29;;;;;;;0.00;0.00;;;18.20;99.90;;;;;;5020672;28;20546;-74
2022/09/11 11:00:05;;;;;;;0.00;0.00;;;18.40;99.90;;;;;;5029739;28;20202;-74
2022/09/11 11:02:35;;;;;;;0.00;0.00;;;18.50;99.90;;;;;;5026086;28;20199;-73
2022/09/11 11:05:08;;;;;;;0.00;0.00;;;18.60;99.90;;;;;;5027725;28;20288;-73
2022/09/11 11:08:00;;;;;;;0.00;0.00;;;18.60;99.90;;;;;;5027979;28;20199;-73
2022/09/11 11:11:02;;;;;;;0.00;0.00;;;18.50;99.90;;;;;;5026316;28;20222;-75
2022/09/11 11:13:48;;;;;;;0.00;0.00;;;18.40;99.90;;;;;;5026930;28;20219;-73
2022/09/11 11:16:22;;;;;;;0.00;0.00;;;18.40;99.90;;;;;;5027562;28;20551;-74
2022/09/11 11:19:12;;;;;;;0.00;0.00;;;18.30;99.90;;;;;;5030480;28;20589;-73
2022/09/11 11:21:53;;;;;;;0.00;0.00;;;18.40;99.90;;;;;;5027770;28;20202;-73
2022/09/11 11:24:39;;;;;;;0.00;0.00;;;18.40;99.90;;;;;;5029132;28;20219;-73
2022/09/11 11:27:26;;;;;;;0.00;0.00;;;18.70;99.90;;;;;;5025369;28;20301;-73
2022/09/11 11:30:09;;;;;;;0.00;0.00;;;18.80;99.90;;;;;;5027877;28;20203;-75
2022/09/11 11:32:50;;;;;;;0.00;0.00;;;19.10;99.90;;;;;;5026481;28;20767;-75
2022/09/11 11:35:25;;;;;;;0.00;0.00;;;19.30;99.90;;;;;;5028339;28;20277;-73
2022/09/11 11:38:02;;;;;;;0.00;0.00;;;19.40;99.90;;;;;;5027976;28;20198;-73
2022/09/11 11:40:35;;;;;;;0.00;0.00;;;19.60;99.90;;;;;;5022098;28;20241;-74
2022/09/11 11:43:07;;;;;;;0.00;0.00;;;19.80;99.90;;;;;;5028201;28;20199;-75
2022/09/11 11:45:39;;;;;;;0.00;0.00;;;20.10;99.90;;;;;;5027480;28;20243;-74
2022/09/11 11:48:13;;;;;;;0.00;0.00;;;20.30;99.90;;;;;;5025398;28;21300;-74
2022/09/11 11:50:44;;;;;;;0.00;0.00;;;20.50;99.90;;;;;;5033070;28;20199;-73
2022/09/11 11:53:19;;;;;;;0.00;0.00;;;20.70;99.90;;;;;;5032088;28;20616;-74
2022/09/11 11:55:55;;;;;;;0.00;0.00;;;20.90;99.90;;;;;;5031704;28;20226;-73
2022/09/11 11:58:35;;;;;;;0.00;0.00;;;21.10;99.90;;;;;;5032243;28;20649;-73
2022/09/11 12:01:10;;;;;;;0.00;0.00;;;21.30;99.90;;;;;;5032314;28;20256;-75
2022/09/11 12:03:42;;;;;;;0.00;0.00;;;21.50;99.90;;;;;;5026701;28;20198;-75
2022/09/11 12:06:11;;;;;;;0.00;0.00;;;21.70;99.90;;;;;;5046342;22;20234;-76
2022/09/11 12:08:44;;;;;;;0.00;0.00;;;21.80;99.90;;;;;;5030768;28;20222;-76
2022/09/11 12:11:15;;;;;;;0.00;0.00;;;21.80;99.90;;;;;;5025383;28;20204;-76
2022/09/11 12:13:46;;;;;;;0.00;0.00;;;21.80;99.90;;;;;;5032077;28;20265;-76
2022/09/11 12:16:18;;;;;;;0.00;0.00;;;21.80;99.90;;;;;;5012752;28;20227;-76
2022/09/11 12:19:04;;;;;;;0.00;0.00;;;21.90;99.90;;;;;;4994524;28;20204;-76
2022/09/11 12:21:38;;;;;;;0.00;0.00;;;22.00;99.90;;;;;;5011760;28;20200;-76
2022/09/11 12:24:19;;;;;;;0.00;0.00;;;22.00;99.90;;;;;;5013484;28;20203;-76
2022/09/11 12:26:48;;;;;;;0.00;0.00;;;22.10;99.90;;;;;;5005032;28;20254;-77
2022/09/11 12:29:45;;;;;;;0.00;0.00;;;22.30;99.90;;;;;;5011249;28;20242;-77
2022/09/11 12:32:27;;;;;;;0.00;0.00;;;22.50;99.90;;;;;;4967433;28;20625;-76
2022/09/11 12:35:00;;;;;;;0.00;0.00;;;22.80;99.90;;;;;;5009501;28;20227;-76
2022/09/11 12:37:36;;;;;;;0.00;0.00;;;23.00;99.90;;;;;;5009662;28;20208;-77
2022/09/11 12:40:15;;;;;;;0.00;0.00;;;23.10;99.90;;;;;;5012266;28;20200;-77
2022/09/11 12:42:47;;;;;;;0.00;0.00;;;23.20;99.90;;;;;;5009587;28;20302;-76
2022/09/11 12:45:33;;;;;;;0.00;0.00;;;23.10;99.90;;;;;;5013471;28;20250;-76
2022/09/11 12:48:11;;;;;;;0.00;0.00;;;23.20;99.90;;;;;;5011090;28;20685;-76
2022/09/11 12:50:39;;;;;;;0.00;0.00;;;23.40;99.90;;;;;;5007299;28;20577;-76
2022/09/11 12:53:17;;;;;;;0.00;0.00;;;23.60;99.90;;;;;;5008284;28;20211;-77
2022/09/11 12:55:57;;;;;;;0.00;0.00;;;23.60;99.90;;;;;;5009900;28;20696;-75
2022/09/11 12:58:32;;;;;;;0.00;0.00;;;23.50;99.90;;;;;;5011852;28;20204;-76
2022/09/11 13:01:06;;;;;;;0.00;0.00;;;23.20;99.90;;;;;;5007862;28;20211;-75
2022/09/11 13:03:35;;;;;;;0.00;0.00;;;23.10;99.90;;;;;;5010508;28;20200;-77
2022/09/11 13:06:06;;;;;;;0.00;0.00;;;23.00;99.90;;;;;;4987808;28;20275;-76
2022/09/11 13:08:40;;;;;;;0.00;0.00;;;22.80;99.90;;;;;;5004313;28;20209;-76
2022/09/11 13:11:39;;;;;;;0.00;0.00;;;22.50;99.90;;;;;;5009094;28;20215;-77
2022/09/11 13:14:47;;;;;;;0.00;0.00;;;22.30;99.90;;;;;;4993223;28;20218;-77
2022/09/11 13:17:24;;;;;;;0.00;0.00;;;22.00;99.90;;;;;;4988964;28;20199;-77